sensor_id;sensor_type;location;lat;lon;timestamp;P1;durP1;ratioP1;P2;durP2;ratioP2
42802;SDS011;28447;48.682;9.022;2023-04-03T04:02:41;8.03;;;4.63;;
42802;SDS011;28447;48.682;9.022;2023-04-03T04:05:07;5.40;;;4.07;;
42802;SDS011;28447;48.682;9.022;2023-04-03T04:07:33;7.53;;;4.37;;
42802;SDS011;28447;48.682;9.022;2023-04-03T04:09:59;5.80;;;4.20;;
42802;SDS011;28447;48.682;9.022;2023-04-03T04:12:26;8.13;;;5.37;;
42802;SDS011;28447;48.682;9.022;2023-04-03T04:14:52;7.00;;;4.53;;
42802;SDS011;28447;48.682;9.022;2023-04-03T04:17:18;5.60;;;4.17;;
42802;SDS011;28447;48.682;9.022;2023-04-03T04:19:44;5.83;;;4.50;;
42802;SDS011;28447;48.682;9.022;2023-04-03T04:22:10;4.60;;;4.00;;
42802;SDS011;28447;48.682;9.022;2023-04-03T04:24:36;6.33;;;4.03;;
42802;SDS011;28447;48.682;9.022;2023-04-03T04:27:03;6.07;;;4.47;;
42802;SDS011;28447;48.682;9.022;2023-04-03T04:29:29;6.53;;;4.97;;
42802;SDS011;28447;48.682;9.022;2023-04-03T04:32:00;9.27;;;4.80;;
42802;SDS011;28447;48.682;9.022;2023-04-03T04:34:26;11.10;;;4.57;;
42802;SDS011;28447;48.682;9.022;2023-04-03T04:36:52;5.80;;;4.67;;
42802;SDS011;28447;48.682;9.022;2023-04-03T04:39:18;6.13;;;4.60;;
42802;SDS011;28447;48.682;9.022;2023-04-03T04:41:44;9.73;;;5.40;;
42802;SDS011;28447;48.682;9.022;2023-04-03T04:44:10;6.80;;;5.37;;
42802;SDS011;28447;48.682;9.022;2023-04-03T04:46:36;6.90;;;4.50;;
42802;SDS011;28447;48.682;9.022;2023-04-03T04:49:02;5.80;;;4.27;;
42802;SDS011;28447;48.682;9.022;2023-04-03T04:51:28;10.73;;;4.43;;
42802;SDS011;28447;48.682;9.022;2023-04-03T04:53:54;7.27;;;4.47;;
42802;SDS011;28447;48.682;9.022;2023-04-03T04:56:20;6.10;;;4.60;;
42802;SDS011;28447;48.682;9.022;2023-04-03T04:58:46;6.87;;;4.00;;
42802;SDS011;28447;48.682;9.022;2023-04-03T05:01:12;5.20;;;4.10;;
42802;SDS011;28447;48.682;9.022;2023-04-03T05:03:38;7.33;;;4.00;;
42802;SDS011;28447;48.682;9.022;2023-04-03T05:06:04;6.13;;;4.43;;
42802;SDS011;28447;48.682;9.022;2023-04-03T05:08:30;6.60;;;4.63;;
42802;SDS011;28447;48.682;9.022;2023-04-03T05:10:56;6.70;;;4.20;;
42802;SDS011;28447;48.682;9.022;2023-04-03T05:13:22;4.57;;;3.50;;
42802;SDS011;28447;48.682;9.022;2023-04-03T05:15:48;12.40;;;4.67;;
42802;SDS011;28447;48.682;9.022;2023-04-03T05:18:14;6.83;;;4.70;;
42802;SDS011;28447;48.682;9.022;2023-04-03T05:20:40;6.03;;;4.47;;
42802;SDS011;28447;48.682;9.022;2023-04-03T05:23:08;5.43;;;4.17;;
42802;SDS011;28447;48.682;9.022;2023-04-03T05:25:36;6.53;;;3.67;;
42802;SDS011;28447;48.682;9.022;2023-04-03T05:28:02;7.70;;;4.33;;
42802;SDS011;28447;48.682;9.022;2023-04-03T05:30:28;5.73;;;3.43;;
42802;SDS011;28447;48.682;9.022;2023-04-03T05:32:54;6.33;;;3.87;;
42802;SDS011;28447;48.682;9.022;2023-04-03T05:35:20;4.07;;;3.67;;
42802;SDS011;28447;48.682;9.022;2023-04-03T05:37:46;4.97;;;3.87;;
42802;SDS011;28447;48.682;9.022;2023-04-03T05:40:12;4.60;;;3.47;;
42802;SDS011;28447;48.682;9.022;2023-04-03T05:42:38;5.90;;;3.83;;
42802;SDS011;28447;48.682;9.022;2023-04-03T05:45:05;5.03;;;3.40;;
42802;SDS011;28447;48.682;9.022;2023-04-03T05:47:31;5.43;;;3.27;;
42802;SDS011;28447;48.682;9.022;2023-04-03T05:49:57;5.90;;;3.87;;
42802;SDS011;28447;48.682;9.022;2023-04-03T05:52:26;5.30;;;3.67;;
42802;SDS011;28447;48.682;9.022;2023-04-03T05:54:52;7.47;;;4.50;;
42802;SDS011;28447;48.682;9.022;2023-04-03T05:57:18;4.93;;;4.17;;
42802;SDS011;28447;48.682;9.022;2023-04-03T05:59:45;3.70;;;3.30;;
42802;SDS011;28447;48.682;9.022;2023-04-03T06:02:16;3.90;;;3.37;;
42802;SDS011;28447;48.682;9.022;2023-04-03T06:04:42;8.50;;;4.30;;
42802;SDS011;28447;48.682;9.022;2023-04-03T06:07:10;3.40;;;3.10;;
42802;SDS011;28447;48.682;9.022;2023-04-03T06:09:38;5.10;;;3.40;;
42802;SDS011;28447;48.682;9.022;2023-04-03T06:12:04;4.47;;;3.53;;
42802;SDS011;28447;48.682;9.022;2023-04-03T06:14:29;6.30;;;4.03;;
42802;SDS011;28447;48.682;9.022;2023-04-03T06:16:55;5.77;;;3.73;;
42802;SDS011;28447;48.682;9.022;2023-04-03T06:19:21;5.30;;;3.60;;
42802;SDS011;28447;48.682;9.022;2023-04-03T06:21:47;3.93;;;3.50;;
42802;SDS011;28447;48.682;9.022;2023-04-03T06:24:14;4.57;;;3.80;;
42802;SDS011;28447;48.682;9.022;2023-04-03T06:26:41;5.43;;;3.70;;
42802;SDS011;28447;48.682;9.022;2023-04-03T06:29:07;5.43;;;3.67;;
42802;SDS011;28447;48.682;9.022;2023-04-03T06:31:34;4.70;;;3.70;;
42802;SDS011;28447;48.682;9.022;2023-04-03T06:34:01;4.10;;;3.70;;
42802;SDS011;28447;48.682;9.022;2023-04-03T06:36:27;5.93;;;3.63;;
42802;SDS011;28447;48.682;9.022;2023-04-03T06:38:54;5.90;;;4.43;;
42802;SDS011;28447;48.682;9.022;2023-04-03T06:41:20;4.60;;;4.20;;
42802;SDS011;28447;48.682;9.022;2023-04-03T06:43:46;5.73;;;4.10;;
42802;SDS011;28447;48.682;9.022;2023-04-03T06:46:15;7.07;;;4.00;;
42802;SDS011;28447;48.682;9.022;2023-04-03T06:48:43;5.07;;;3.90;;
42802;SDS011;28447;48.682;9.022;2023-04-03T06:53:51;5.80;;;3.70;;
42802;SDS011;28447;48.682;9.022;2023-04-03T06:56:18;5.30;;;4.00;;
42802;SDS011;28447;48.682;9.022;2023-04-03T06:58:45;4.67;;;3.70;;
42802;SDS011;28447;48.682;9.022;2023-04-03T07:01:12;6.13;;;4.03;;
42802;SDS011;28447;48.682;9.022;2023-04-03T07:03:39;4.37;;;3.73;;
42802;SDS011;28447;48.682;9.022;2023-04-03T07:06:06;5.33;;;3.83;;
42802;SDS011;28447;48.682;9.022;2023-04-03T07:08:33;4.63;;;4.03;;
42802;SDS011;28447;48.682;9.022;2023-04-03T07:10:59;5.53;;;3.97;;
42802;SDS011;28447;48.682;9.022;2023-04-03T07:13:26;8.33;;;4.30;;
42802;SDS011;28447;48.682;9.022;2023-04-03T07:15:52;5.47;;;3.43;;
42802;SDS011;28447;48.682;9.022;2023-04-03T07:18:17;6.83;;;3.73;;
42802;SDS011;28447;48.682;9.022;2023-04-03T07:20:43;4.67;;;3.50;;
42802;SDS011;28447;48.682;9.022;2023-04-03T07:23:09;4.30;;;3.90;;
42802;SDS011;28447;48.682;9.022;2023-04-03T07:25:35;4.13;;;3.30;;
42802;SDS011;28447;48.682;9.022;2023-04-03T07:28:02;7.10;;;4.17;;
42802;SDS011;28447;48.682;9.022;2023-04-03T07:30:28;5.07;;;3.83;;
42802;SDS011;28447;48.682;9.022;2023-04-03T07:32:54;4.60;;;3.60;;
42802;SDS011;28447;48.682;9.022;2023-04-03T07:35:20;7.20;;;4.40;;
42802;SDS011;28447;48.682;9.022;2023-04-03T07:37:46;7.60;;;4.60;;
42802;SDS011;28447;48.682;9.022;2023-04-03T07:40:11;4.17;;;3.43;;
42802;SDS011;28447;48.682;9.022;2023-04-03T07:42:37;4.07;;;3.17;;
42802;SDS011;28447;48.682;9.022;2023-04-03T07:45:03;6.20;;;4.77;;
42802;SDS011;28447;48.682;9.022;2023-04-03T07:47:29;6.07;;;4.17;;
42802;SDS011;28447;48.682;9.022;2023-04-03T07:49:56;6.23;;;3.93;;
42802;SDS011;28447;48.682;9.022;2023-04-03T07:52:22;6.20;;;4.33;;
42802;SDS011;28447;48.682;9.022;2023-04-03T07:54:48;6.40;;;3.87;;
42802;SDS011;28447;48.682;9.022;2023-04-03T07:57:13;8.27;;;4.30;;
42802;SDS011;28447;48.682;9.022;2023-04-03T07:59:39;4.80;;;3.87;;
42802;SDS011;28447;48.682;9.022;2023-04-03T08:02:08;6.63;;;4.10;;
42802;SDS011;28447;48.682;9.022;2023-04-03T08:04:35;5.10;;;3.50;;
42802;SDS011;28447;48.682;9.022;2023-04-03T08:07:00;8.73;;;4.00;;
42802;SDS011;28447;48.682;9.022;2023-04-03T08:09:26;5.23;;;4.10;;
42802;SDS011;28447;48.682;9.022;2023-04-03T08:11:52;7.00;;;4.50;;
42802;SDS011;28447;48.682;9.022;2023-04-03T08:14:18;5.97;;;3.33;;
42802;SDS011;28447;48.682;9.022;2023-04-03T08:16:46;7.43;;;3.83;;
42802;SDS011;28447;48.682;9.022;2023-04-03T08:19:12;5.83;;;3.93;;
42802;SDS011;28447;48.682;9.022;2023-04-03T08:21:40;4.47;;;3.90;;
42802;SDS011;28447;48.682;9.022;2023-04-03T08:24:06;5.43;;;3.97;;
42802;SDS011;28447;48.682;9.022;2023-04-03T08:26:33;5.33;;;4.20;;
42802;SDS011;28447;48.682;9.022;2023-04-03T08:28:59;5.07;;;3.87;;
42802;SDS011;28447;48.682;9.022;2023-04-03T08:31:25;4.70;;;3.63;;
42802;SDS011;28447;48.682;9.022;2023-04-03T08:33:51;5.70;;;4.37;;
42802;SDS011;28447;48.682;9.022;2023-04-03T08:36:21;5.23;;;4.10;;
42802;SDS011;28447;48.682;9.022;2023-04-03T08:38:48;4.57;;;4.07;;
42802;SDS011;28447;48.682;9.022;2023-04-03T08:41:31;6.20;;;4.50;;
42802;SDS011;28447;48.682;9.022;2023-04-03T08:44:07;6.03;;;4.00;;
42802;SDS011;28447;48.682;9.022;2023-04-03T08:49:21;4.50;;;3.73;;
42802;SDS011;28447;48.682;9.022;2023-04-03T08:51:49;8.03;;;4.50;;
42802;SDS011;28447;48.682;9.022;2023-04-03T08:54:35;7.80;;;4.60;;
42802;SDS011;28447;48.682;9.022;2023-04-03T08:57:04;12.60;;;4.67;;
42802;SDS011;28447;48.682;9.022;2023-04-03T08:59:34;6.33;;;4.20;;
42802;SDS011;28447;48.682;9.022;2023-04-03T09:02:03;5.23;;;4.70;;
42802;SDS011;28447;48.682;9.022;2023-04-03T09:04:32;5.83;;;4.80;;
42802;SDS011;28447;48.682;9.022;2023-04-03T09:07:11;5.30;;;4.47;;
42802;SDS011;28447;48.682;9.022;2023-04-03T09:09:40;7.40;;;5.10;;
42802;SDS011;28447;48.682;9.022;2023-04-03T09:12:12;7.67;;;4.80;;
42802;SDS011;28447;48.682;9.022;2023-04-03T09:22:41;13.60;;;5.53;;
42802;SDS011;28447;48.682;9.022;2023-04-03T09:27:40;7.20;;;5.00;;
42802;SDS011;28447;48.682;9.022;2023-04-03T09:30:11;7.93;;;5.00;;
42802;SDS011;28447;48.682;9.022;2023-04-03T09:32:38;7.30;;;4.90;;
42802;SDS011;28447;48.682;9.022;2023-04-03T09:35:13;6.00;;;4.10;;
42802;SDS011;28447;48.682;9.022;2023-04-03T09:37:42;7.27;;;4.60;;
42802;SDS011;28447;48.682;9.022;2023-04-03T09:42:54;7.90;;;4.30;;
42802;SDS011;28447;48.682;9.022;2023-04-03T09:45:24;7.30;;;4.20;;
42802;SDS011;28447;48.682;9.022;2023-04-03T09:48:04;7.97;;;4.23;;
42802;SDS011;28447;48.682;9.022;2023-04-03T09:50:32;5.50;;;4.07;;
42802;SDS011;28447;48.682;9.022;2023-04-03T09:52:58;5.97;;;4.33;;
42802;SDS011;28447;48.682;9.022;2023-04-03T09:55:25;8.53;;;4.10;;
42802;SDS011;28447;48.682;9.022;2023-04-03T09:57:54;4.90;;;4.00;;
42802;SDS011;28447;48.682;9.022;2023-04-03T10:02:51;5.10;;;4.17;;
42802;SDS011;28447;48.682;9.022;2023-04-03T10:05:51;4.50;;;3.80;;
42802;SDS011;28447;48.682;9.022;2023-04-03T10:10:43;4.30;;;3.90;;
42802;SDS011;28447;48.682;9.022;2023-04-03T10:15:54;3.97;;;3.40;;
42802;SDS011;28447;48.682;9.022;2023-04-03T10:21:15;6.37;;;4.17;;
42802;SDS011;28447;48.682;9.022;2023-04-03T10:23:48;5.13;;;4.30;;
42802;SDS011;28447;48.682;9.022;2023-04-03T10:29:00;6.97;;;4.43;;
42802;SDS011;28447;48.682;9.022;2023-04-03T10:31:33;3.90;;;3.33;;
42802;SDS011;28447;48.682;9.022;2023-04-03T10:36:43;6.97;;;4.23;;
42802;SDS011;28447;48.682;9.022;2023-04-03T10:41:46;4.70;;;3.30;;
42802;SDS011;28447;48.682;9.022;2023-04-03T10:44:19;7.13;;;4.20;;
42802;SDS011;28447;48.682;9.022;2023-04-03T10:46:48;4.77;;;4.07;;
42802;SDS011;28447;48.682;9.022;2023-04-03T10:51:44;5.60;;;4.20;;
42802;SDS011;28447;48.682;9.022;2023-04-03T10:54:12;5.63;;;3.70;;
42802;SDS011;28447;48.682;9.022;2023-04-03T10:56:40;12.10;;;3.80;;
42802;SDS011;28447;48.682;9.022;2023-04-03T11:01:53;3.90;;;3.30;;
42802;SDS011;28447;48.682;9.022;2023-04-03T11:04:21;4.60;;;2.90;;
42802;SDS011;28447;48.682;9.022;2023-04-03T11:06:50;3.73;;;3.00;;
42802;SDS011;28447;48.682;9.022;2023-04-03T11:09:19;7.87;;;3.63;;
42802;SDS011;28447;48.682;9.022;2023-04-03T11:11:47;3.93;;;3.33;;
42802;SDS011;28447;48.682;9.022;2023-04-03T11:14:28;4.67;;;4.20;;
42802;SDS011;28447;48.682;9.022;2023-04-03T11:17:11;6.27;;;3.53;;
42802;SDS011;28447;48.682;9.022;2023-04-03T11:20:20;4.73;;;3.40;;
42802;SDS011;28447;48.682;9.022;2023-04-03T11:22:27;5.50;;;3.83;;
42802;SDS011;28447;48.682;9.022;2023-04-03T11:25:06;9.57;;;4.00;;
42802;SDS011;28447;48.682;9.022;2023-04-03T11:27:59;4.03;;;3.63;;
42802;SDS011;28447;48.682;9.022;2023-04-03T11:30:28;5.97;;;3.97;;
42802;SDS011;28447;48.682;9.022;2023-04-03T11:35:37;4.30;;;3.00;;
42802;SDS011;28447;48.682;9.022;2023-04-03T11:38:10;6.00;;;4.23;;
42802;SDS011;28447;48.682;9.022;2023-04-03T11:40:40;3.90;;;3.40;;
42802;SDS011;28447;48.682;9.022;2023-04-03T11:46:03;7.13;;;3.93;;
42802;SDS011;28447;48.682;9.022;2023-04-03T11:53:35;8.00;;;3.50;;
42802;SDS011;28447;48.682;9.022;2023-04-03T11:56:02;4.30;;;3.83;;
42802;SDS011;28447;48.682;9.022;2023-04-03T11:58:30;4.20;;;3.20;;
42802;SDS011;28447;48.682;9.022;2023-04-03T12:00:59;7.20;;;3.80;;
42802;SDS011;28447;48.682;9.022;2023-04-03T12:05:55;7.83;;;3.90;;
42802;SDS011;28447;48.682;9.022;2023-04-03T12:16:21;8.00;;;3.53;;
42802;SDS011;28447;48.682;9.022;2023-04-03T12:23:57;4.37;;;2.70;;
42802;SDS011;28447;48.682;9.022;2023-04-03T12:26:25;3.80;;;3.07;;
42802;SDS011;28447;48.682;9.022;2023-04-03T12:28:52;6.47;;;3.80;;
42802;SDS011;28447;48.682;9.022;2023-04-03T12:31:19;4.07;;;2.80;;
42802;SDS011;28447;48.682;9.022;2023-04-03T12:33:57;3.57;;;3.10;;
42802;SDS011;28447;48.682;9.022;2023-04-03T12:36:29;6.23;;;3.37;;
42802;SDS011;28447;48.682;9.022;2023-04-03T12:39:00;7.00;;;3.23;;
42802;SDS011;28447;48.682;9.022;2023-04-03T12:46:54;5.73;;;2.87;;
42802;SDS011;28447;48.682;9.022;2023-04-03T12:49:42;3.57;;;2.97;;
42802;SDS011;28447;48.682;9.022;2023-04-03T12:52:18;4.13;;;3.33;;
42802;SDS011;28447;48.682;9.022;2023-04-03T12:54:45;6.10;;;3.10;;
42802;SDS011;28447;48.682;9.022;2023-04-03T12:57:19;6.70;;;3.20;;
42802;SDS011;28447;48.682;9.022;2023-04-03T12:59:46;3.93;;;2.93;;
42802;SDS011;28447;48.682;9.022;2023-04-03T13:02:31;5.10;;;3.27;;
42802;SDS011;28447;48.682;9.022;2023-04-03T13:04:59;5.33;;;3.20;;
42802;SDS011;28447;48.682;9.022;2023-04-03T13:07:34;7.23;;;3.33;;
42802;SDS011;28447;48.682;9.022;2023-04-03T13:10:04;4.50;;;3.20;;
42802;SDS011;28447;48.682;9.022;2023-04-03T13:15:24;3.90;;;3.37;;
42802;SDS011;28447;48.682;9.022;2023-04-03T13:17:51;6.87;;;3.73;;
42802;SDS011;28447;48.682;9.022;2023-04-03T13:20:23;6.00;;;3.70;;
42802;SDS011;28447;48.682;9.022;2023-04-03T13:22:51;6.13;;;2.90;;
42802;SDS011;28447;48.682;9.022;2023-04-03T13:25:18;8.57;;;3.10;;
42802;SDS011;28447;48.682;9.022;2023-04-03T13:27:46;5.27;;;3.17;;
42802;SDS011;28447;48.682;9.022;2023-04-03T13:30:53;3.50;;;3.20;;
42802;SDS011;28447;48.682;9.022;2023-04-03T13:33:06;3.50;;;3.20;;
42802;SDS011;28447;48.682;9.022;2023-04-03T13:35:44;5.17;;;3.20;;
42802;SDS011;28447;48.682;9.022;2023-04-03T13:40:55;4.13;;;3.73;;
42802;SDS011;28447;48.682;9.022;2023-04-03T13:43:26;3.43;;;2.90;;
42802;SDS011;28447;48.682;9.022;2023-04-03T13:48:35;4.57;;;3.63;;
42802;SDS011;28447;48.682;9.022;2023-04-03T13:51:04;4.00;;;2.80;;
42802;SDS011;28447;48.682;9.022;2023-04-03T13:53:31;5.33;;;3.53;;
42802;SDS011;28447;48.682;9.022;2023-04-03T13:56:05;3.47;;;3.17;;
42802;SDS011;28447;48.682;9.022;2023-04-03T13:58:32;4.40;;;3.20;;
42802;SDS011;28447;48.682;9.022;2023-04-03T14:01:01;4.03;;;2.97;;
42802;SDS011;28447;48.682;9.022;2023-04-03T14:03:32;3.60;;;3.23;;
42802;SDS011;28447;48.682;9.022;2023-04-03T14:05:59;7.20;;;3.63;;
42802;SDS011;28447;48.682;9.022;2023-04-03T14:08:26;3.97;;;2.90;;
42802;SDS011;28447;48.682;9.022;2023-04-03T14:10:52;4.87;;;3.57;;
42802;SDS011;28447;48.682;9.022;2023-04-03T14:13:20;3.83;;;3.33;;
42802;SDS011;28447;48.682;9.022;2023-04-03T14:15:47;5.70;;;3.00;;
42802;SDS011;28447;48.682;9.022;2023-04-03T14:18:15;6.20;;;3.07;;
42802;SDS011;28447;48.682;9.022;2023-04-03T14:20:41;4.00;;;3.03;;
42802;SDS011;28447;48.682;9.022;2023-04-03T14:23:08;3.77;;;3.23;;
42802;SDS011;28447;48.682;9.022;2023-04-03T14:25:34;4.23;;;3.80;;
42802;SDS011;28447;48.682;9.022;2023-04-03T14:28:00;6.87;;;4.00;;
42802;SDS011;28447;48.682;9.022;2023-04-03T14:30:30;4.53;;;3.63;;
42802;SDS011;28447;48.682;9.022;2023-04-03T14:32:57;3.57;;;3.17;;
42802;SDS011;28447;48.682;9.022;2023-04-03T14:35:24;4.63;;;3.23;;
42802;SDS011;28447;48.682;9.022;2023-04-03T14:37:51;4.30;;;3.63;;
42802;SDS011;28447;48.682;9.022;2023-04-03T14:40:20;4.27;;;3.07;;
42802;SDS011;28447;48.682;9.022;2023-04-03T14:42:46;3.60;;;3.30;;
42802;SDS011;28447;48.682;9.022;2023-04-03T14:45:14;5.13;;;3.00;;
42802;SDS011;28447;48.682;9.022;2023-04-03T14:47:42;8.27;;;3.50;;
42802;SDS011;28447;48.682;9.022;2023-04-03T14:50:12;6.70;;;3.40;;
42802;SDS011;28447;48.682;9.022;2023-04-03T14:52:39;5.47;;;3.83;;
42802;SDS011;28447;48.682;9.022;2023-04-03T14:55:06;7.53;;;3.30;;
42802;SDS011;28447;48.682;9.022;2023-04-03T14:57:32;3.63;;;3.00;;
42802;SDS011;28447;48.682;9.022;2023-04-03T14:59:58;7.63;;;4.97;;
42802;SDS011;28447;48.682;9.022;2023-04-03T15:04:51;3.50;;;2.97;;
42802;SDS011;28447;48.682;9.022;2023-04-03T15:07:17;8.87;;;3.20;;
42802;SDS011;28447;48.682;9.022;2023-04-03T15:09:44;5.10;;;3.10;;
42802;SDS011;28447;48.682;9.022;2023-04-03T15:12:12;6.00;;;3.60;;
42802;SDS011;28447;48.682;9.022;2023-04-03T15:14:38;4.47;;;3.73;;
42802;SDS011;28447;48.682;9.022;2023-04-03T15:17:04;4.33;;;2.90;;
42802;SDS011;28447;48.682;9.022;2023-04-03T15:19:36;4.40;;;3.30;;
42802;SDS011;28447;48.682;9.022;2023-04-03T15:22:03;5.40;;;3.57;;
42802;SDS011;28447;48.682;9.022;2023-04-03T15:24:29;4.13;;;3.67;;
42802;SDS011;28447;48.682;9.022;2023-04-03T15:26:55;5.43;;;3.57;;
42802;SDS011;28447;48.682;9.022;2023-04-03T15:29:21;3.83;;;3.30;;
42802;SDS011;28447;48.682;9.022;2023-04-03T15:31:47;3.60;;;3.30;;
42802;SDS011;28447;48.682;9.022;2023-04-03T15:34:14;5.90;;;3.23;;
42802;SDS011;28447;48.682;9.022;2023-04-03T15:36:41;5.50;;;3.70;;
42802;SDS011;28447;48.682;9.022;2023-04-03T15:39:07;4.80;;;3.47;;
42802;SDS011;28447;48.682;9.022;2023-04-03T15:41:33;4.30;;;3.13;;
42802;SDS011;28447;48.682;9.022;2023-04-03T15:43:59;3.73;;;3.10;;
42802;SDS011;28447;48.682;9.022;2023-04-03T15:46:25;4.33;;;3.03;;
42802;SDS011;28447;48.682;9.022;2023-04-03T15:48:51;5.93;;;3.43;;
42802;SDS011;28447;48.682;9.022;2023-04-03T15:51:17;8.37;;;3.80;;
42802;SDS011;28447;48.682;9.022;2023-04-03T15:53:43;4.47;;;3.40;;
42802;SDS011;28447;48.682;9.022;2023-04-03T15:56:09;4.87;;;3.80;;
42802;SDS011;28447;48.682;9.022;2023-04-03T15:58:36;4.37;;;3.77;;
42802;SDS011;28447;48.682;9.022;2023-04-03T16:01:03;4.60;;;3.40;;
42802;SDS011;28447;48.682;9.022;2023-04-03T16:03:29;5.13;;;3.37;;
42802;SDS011;28447;48.682;9.022;2023-04-03T16:05:55;4.03;;;3.47;;
42802;SDS011;28447;48.682;9.022;2023-04-03T16:08:21;3.87;;;3.23;;
42802;SDS011;28447;48.682;9.022;2023-04-03T16:10:48;4.63;;;3.03;;
42802;SDS011;28447;48.682;9.022;2023-04-03T16:13:14;4.40;;;3.10;;
42802;SDS011;28447;48.682;9.022;2023-04-03T16:15:40;4.53;;;2.90;;
42802;SDS011;28447;48.682;9.022;2023-04-03T16:18:07;3.50;;;2.87;;
42802;SDS011;28447;48.682;9.022;2023-04-03T16:20:34;7.03;;;3.47;;
42802;SDS011;28447;48.682;9.022;2023-04-03T16:23:00;5.27;;;3.30;;
42802;SDS011;28447;48.682;9.022;2023-04-03T16:25:26;3.97;;;3.20;;
42802;SDS011;28447;48.682;9.022;2023-04-03T16:27:52;4.30;;;3.37;;
42802;SDS011;28447;48.682;9.022;2023-04-03T16:30:18;3.83;;;2.97;;
42802;SDS011;28447;48.682;9.022;2023-04-03T16:32:45;4.20;;;2.97;;
42802;SDS011;28447;48.682;9.022;2023-04-03T16:35:11;3.57;;;2.87;;
42802;SDS011;28447;48.682;9.022;2023-04-03T16:37:37;5.43;;;3.07;;
42802;SDS011;28447;48.682;9.022;2023-04-03T16:40:05;3.20;;;2.90;;
42802;SDS011;28447;48.682;9.022;2023-04-03T16:42:31;3.77;;;3.23;;
42802;SDS011;28447;48.682;9.022;2023-04-03T16:44:57;4.10;;;3.37;;
42802;SDS011;28447;48.682;9.022;2023-04-03T16:47:25;4.03;;;3.30;;
42802;SDS011;28447;48.682;9.022;2023-04-03T16:49:52;4.10;;;3.20;;
42802;SDS011;28447;48.682;9.022;2023-04-03T16:52:18;7.20;;;2.70;;
42802;SDS011;28447;48.682;9.022;2023-04-03T16:54:44;3.17;;;2.60;;
42802;SDS011;28447;48.682;9.022;2023-04-03T16:57:10;5.07;;;3.43;;
42802;SDS011;28447;48.682;9.022;2023-04-03T16:59:36;4.37;;;3.50;;
42802;SDS011;28447;48.682;9.022;2023-04-03T17:02:02;5.40;;;3.07;;
42802;SDS011;28447;48.682;9.022;2023-04-03T17:04:28;4.10;;;2.63;;
42802;SDS011;28447;48.682;9.022;2023-04-03T17:06:54;5.77;;;3.90;;
42802;SDS011;28447;48.682;9.022;2023-04-03T17:09:20;4.33;;;3.43;;
42802;SDS011;28447;48.682;9.022;2023-04-03T17:11:47;4.90;;;3.20;;
42802;SDS011;28447;48.682;9.022;2023-04-03T17:14:13;5.60;;;3.53;;
42802;SDS011;28447;48.682;9.022;2023-04-03T17:16:39;4.30;;;3.13;;
42802;SDS011;28447;48.682;9.022;2023-04-03T17:19:05;5.43;;;3.50;;
42802;SDS011;28447;48.682;9.022;2023-04-03T17:21:32;4.87;;;3.00;;
42802;SDS011;28447;48.682;9.022;2023-04-03T17:23:59;5.23;;;3.17;;
42802;SDS011;28447;48.682;9.022;2023-04-03T17:26:26;4.73;;;3.33;;
42802;SDS011;28447;48.682;9.022;2023-04-03T17:28:52;4.77;;;3.40;;
42802;SDS011;28447;48.682;9.022;2023-04-03T17:31:18;3.83;;;2.80;;
42802;SDS011;28447;48.682;9.022;2023-04-03T17:33:44;7.40;;;3.00;;
42802;SDS011;28447;48.682;9.022;2023-04-03T17:36:10;6.00;;;3.20;;
42802;SDS011;28447;48.682;9.022;2023-04-03T17:38:36;3.90;;;3.20;;
42802;SDS011;28447;48.682;9.022;2023-04-03T17:41:04;4.73;;;3.07;;
42802;SDS011;28447;48.682;9.022;2023-04-03T17:43:30;5.10;;;3.13;;
42802;SDS011;28447;48.682;9.022;2023-04-03T17:46:00;4.90;;;3.47;;
42802;SDS011;28447;48.682;9.022;2023-04-03T17:48:30;5.87;;;3.83;;
42802;SDS011;28447;48.682;9.022;2023-04-03T17:50:56;11.80;;;4.43;;
42802;SDS011;28447;48.682;9.022;2023-04-03T17:53:22;5.00;;;3.47;;
42802;SDS011;28447;48.682;9.022;2023-04-03T17:55:49;11.60;;;4.20;;
42802;SDS011;28447;48.682;9.022;2023-04-03T17:58:15;4.70;;;3.37;;
42802;SDS011;28447;48.682;9.022;2023-04-03T18:00:41;6.30;;;4.07;;
42802;SDS011;28447;48.682;9.022;2023-04-03T18:03:07;6.30;;;3.40;;
42802;SDS011;28447;48.682;9.022;2023-04-03T18:05:33;4.40;;;3.37;;
42802;SDS011;28447;48.682;9.022;2023-04-03T18:07:59;5.80;;;3.90;;
42802;SDS011;28447;48.682;9.022;2023-04-03T18:10:26;5.70;;;3.20;;
42802;SDS011;28447;48.682;9.022;2023-04-03T18:12:52;4.40;;;2.97;;
42802;SDS011;28447;48.682;9.022;2023-04-03T18:15:18;4.07;;;2.57;;
42802;SDS011;28447;48.682;9.022;2023-04-03T18:17:45;5.40;;;3.77;;
42802;SDS011;28447;48.682;9.022;2023-04-03T18:20:13;5.80;;;3.33;;
42802;SDS011;28447;48.682;9.022;2023-04-03T18:22:40;4.80;;;3.10;;
42802;SDS011;28447;48.682;9.022;2023-04-03T18:25:07;5.23;;;3.63;;
42802;SDS011;28447;48.682;9.022;2023-04-03T18:27:34;3.70;;;2.97;;
42802;SDS011;28447;48.682;9.022;2023-04-03T18:30:02;7.10;;;3.37;;
42802;SDS011;28447;48.682;9.022;2023-04-03T18:32:32;4.83;;;3.80;;
42802;SDS011;28447;48.682;9.022;2023-04-03T18:34:58;6.33;;;3.83;;
42802;SDS011;28447;48.682;9.022;2023-04-03T18:37:25;3.80;;;2.97;;
42802;SDS011;28447;48.682;9.022;2023-04-03T18:39:52;4.83;;;3.20;;
42802;SDS011;28447;48.682;9.022;2023-04-03T18:42:18;7.70;;;3.80;;
42802;SDS011;28447;48.682;9.022;2023-04-03T18:44:47;5.10;;;3.87;;
42802;SDS011;28447;48.682;9.022;2023-04-03T18:47:15;5.40;;;3.50;;
42802;SDS011;28447;48.682;9.022;2023-04-03T18:49:41;4.23;;;3.13;;
42802;SDS011;28447;48.682;9.022;2023-04-03T18:52:07;5.07;;;3.10;;
42802;SDS011;28447;48.682;9.022;2023-04-03T18:54:34;4.73;;;3.50;;
42802;SDS011;28447;48.682;9.022;2023-04-03T18:57:01;5.43;;;2.90;;
42802;SDS011;28447;48.682;9.022;2023-04-03T18:59:27;4.53;;;3.50;;
42802;SDS011;28447;48.682;9.022;2023-04-03T19:01:54;6.23;;;3.80;;
42802;SDS011;28447;48.682;9.022;2023-04-03T19:04:20;7.03;;;3.20;;
42802;SDS011;28447;48.682;9.022;2023-04-03T19:06:46;5.17;;;3.20;;
42802;SDS011;28447;48.682;9.022;2023-04-03T19:09:13;5.53;;;3.00;;
42802;SDS011;28447;48.682;9.022;2023-04-03T19:11:39;5.37;;;3.63;;
42802;SDS011;28447;48.682;9.022;2023-04-03T19:14:05;6.00;;;3.40;;
42802;SDS011;28447;48.682;9.022;2023-04-03T19:16:32;8.13;;;3.67;;
42802;SDS011;28447;48.682;9.022;2023-04-03T19:18:58;5.93;;;3.60;;
42802;SDS011;28447;48.682;9.022;2023-04-03T19:21:24;5.50;;;4.00;;
42802;SDS011;28447;48.682;9.022;2023-04-03T19:23:50;5.80;;;3.37;;
42802;SDS011;28447;48.682;9.022;2023-04-03T19:26:16;5.03;;;2.90;;
42802;SDS011;28447;48.682;9.022;2023-04-03T19:28:43;7.00;;;3.70;;
42802;SDS011;28447;48.682;9.022;2023-04-03T19:31:11;3.90;;;3.27;;
42802;SDS011;28447;48.682;9.022;2023-04-03T19:33:38;7.33;;;3.70;;
42802;SDS011;28447;48.682;9.022;2023-04-03T19:36:06;5.53;;;3.27;;
42802;SDS011;28447;48.682;9.022;2023-04-03T19:38:32;5.53;;;3.70;;
42802;SDS011;28447;48.682;9.022;2023-04-03T19:40:58;4.17;;;3.07;;
42802;SDS011;28447;48.682;9.022;2023-04-03T19:43:24;3.33;;;3.00;;
42802;SDS011;28447;48.682;9.022;2023-04-03T19:45:50;4.53;;;2.87;;
42802;SDS011;28447;48.682;9.022;2023-04-03T19:48:16;6.90;;;3.83;;
42802;SDS011;28447;48.682;9.022;2023-04-03T19:50:42;5.07;;;3.03;;
42802;SDS011;28447;48.682;9.022;2023-04-03T19:53:08;4.67;;;2.80;;
42802;SDS011;28447;48.682;9.022;2023-04-03T19:55:35;3.83;;;3.20;;
42802;SDS011;28447;48.682;9.022;2023-04-03T19:58:02;3.73;;;2.90;;
42802;SDS011;28447;48.682;9.022;2023-04-03T20:00:29;4.20;;;3.20;;
42802;SDS011;28447;48.682;9.022;2023-04-03T20:02:55;4.10;;;2.97;;
42802;SDS011;28447;48.682;9.022;2023-04-03T20:05:21;6.23;;;3.27;;
42802;SDS011;28447;48.682;9.022;2023-04-03T20:07:47;3.57;;;2.97;;
42802;SDS011;28447;48.682;9.022;2023-04-03T20:10:14;3.70;;;2.97;;
42802;SDS011;28447;48.682;9.022;2023-04-03T20:12:41;4.70;;;3.00;;
42802;SDS011;28447;48.682;9.022;2023-04-03T20:15:08;4.73;;;3.60;;
42802;SDS011;28447;48.682;9.022;2023-04-03T20:17:35;9.97;;;3.40;;